sensor_id;sensor_type;location;lat;lon;timestamp;P1;durP1;ratioP1;P2;durP2;ratioP2
5493;SDS011;2769;49.864;8.656;2023-04-28T00:02:30;2.30;;;2.10;;
5493;SDS011;2769;49.864;8.656;2023-04-28T00:04:59;2.53;;;2.17;;
5493;SDS011;2769;49.864;8.656;2023-04-28T00:07:27;2.60;;;2.30;;
5493;SDS011;2769;49.864;8.656;2023-04-28T00:09:55;2.93;;;2.70;;
5493;SDS011;2769;49.864;8.656;2023-04-28T00:12:23;2.00;;;1.90;;
5493;SDS011;2769;49.864;8.656;2023-04-28T00:14:51;4.10;;;2.40;;
5493;SDS011;2769;49.864;8.656;2023-04-28T00:17:19;2.90;;;2.70;;
5493;SDS011;2769;49.864;8.656;2023-04-28T00:19:47;2.70;;;2.50;;
5493;SDS011;2769;49.864;8.656;2023-04-28T00:22:16;3.60;;;2.37;;
5493;SDS011;2769;49.864;8.656;2023-04-28T00:24:44;4.20;;;2.13;;
5493;SDS011;2769;49.864;8.656;2023-04-28T00:27:12;2.90;;;2.57;;
5493;SDS011;2769;49.864;8.656;2023-04-28T00:29:40;2.67;;;2.47;;
5493;SDS011;2769;49.864;8.656;2023-04-28T00:32:08;2.50;;;2.10;;
5493;SDS011;2769;49.864;8.656;2023-04-28T00:34:36;4.60;;;2.70;;
5493;SDS011;2769;49.864;8.656;2023-04-28T00:37:03;3.30;;;2.33;;
5493;SDS011;2769;49.864;8.656;2023-04-28T00:39:33;2.60;;;2.50;;
5493;SDS011;2769;49.864;8.656;2023-04-28T00:42:00;3.13;;;2.10;;
5493;SDS011;2769;49.864;8.656;2023-04-28T00:44:29;2.87;;;2.60;;
5493;SDS011;2769;49.864;8.656;2023-04-28T00:46:57;3.27;;;2.50;;
5493;SDS011;2769;49.864;8.656;2023-04-28T00:49:25;2.70;;;2.50;;
5493;SDS011;2769;49.864;8.656;2023-04-28T00:51:53;2.47;;;2.30;;
5493;SDS011;2769;49.864;8.656;2023-04-28T00:54:21;4.67;;;3.13;;
5493;SDS011;2769;49.864;8.656;2023-04-28T00:56:51;2.77;;;2.57;;
5493;SDS011;2769;49.864;8.656;2023-04-28T00:59:19;4.43;;;2.40;;
5493;SDS011;2769;49.864;8.656;2023-04-28T01:01:47;2.57;;;2.37;;
5493;SDS011;2769;49.864;8.656;2023-04-28T01:04:15;2.40;;;2.20;;
5493;SDS011;2769;49.864;8.656;2023-04-28T01:06:44;4.00;;;2.60;;
5493;SDS011;2769;49.864;8.656;2023-04-28T01:09:12;2.57;;;2.37;;
5493;SDS011;2769;49.864;8.656;2023-04-28T01:11:40;2.80;;;2.70;;
5493;SDS011;2769;49.864;8.656;2023-04-28T01:14:31;2.43;;;2.20;;
5493;SDS011;2769;49.864;8.656;2023-04-28T01:16:59;3.80;;;2.40;;
5493;SDS011;2769;49.864;8.656;2023-04-28T01:19:28;2.20;;;2.10;;
5493;SDS011;2769;49.864;8.656;2023-04-28T01:21:56;2.83;;;2.20;;
5493;SDS011;2769;49.864;8.656;2023-04-28T01:24:26;4.70;;;2.77;;
5493;SDS011;2769;49.864;8.656;2023-04-28T01:26:57;2.50;;;2.00;;
5493;SDS011;2769;49.864;8.656;2023-04-28T01:29:26;2.20;;;2.10;;
5493;SDS011;2769;49.864;8.656;2023-04-28T01:31:54;2.57;;;2.30;;
5493;SDS011;2769;49.864;8.656;2023-04-28T01:34:22;2.67;;;2.40;;
5493;SDS011;2769;49.864;8.656;2023-04-28T01:36:50;3.33;;;2.93;;
5493;SDS011;2769;49.864;8.656;2023-04-28T01:39:18;4.03;;;2.40;;
5493;SDS011;2769;49.864;8.656;2023-04-28T01:41:47;2.80;;;2.53;;
5493;SDS011;2769;49.864;8.656;2023-04-28T01:44:15;2.93;;;2.40;;
5493;SDS011;2769;49.864;8.656;2023-04-28T01:46:47;2.77;;;2.40;;
5493;SDS011;2769;49.864;8.656;2023-04-28T01:49:14;5.23;;;2.50;;
5493;SDS011;2769;49.864;8.656;2023-04-28T01:51:42;3.43;;;2.60;;
5493;SDS011;2769;49.864;8.656;2023-04-28T01:54:10;4.20;;;2.47;;
5493;SDS011;2769;49.864;8.656;2023-04-28T01:56:39;4.90;;;2.57;;
5493;SDS011;2769;49.864;8.656;2023-04-28T01:59:09;2.90;;;2.70;;
5493;SDS011;2769;49.864;8.656;2023-04-28T02:01:37;3.87;;;3.40;;
5493;SDS011;2769;49.864;8.656;2023-04-28T02:04:05;4.77;;;3.10;;
5493;SDS011;2769;49.864;8.656;2023-04-28T02:06:35;3.40;;;2.87;;
5493;SDS011;2769;49.864;8.656;2023-04-28T02:09:03;3.60;;;3.30;;
5493;SDS011;2769;49.864;8.656;2023-04-28T02:11:32;4.30;;;3.20;;
5493;SDS011;2769;49.864;8.656;2023-04-28T02:14:00;3.73;;;3.53;;
5493;SDS011;2769;49.864;8.656;2023-04-28T02:16:29;5.57;;;4.40;;
5493;SDS011;2769;49.864;8.656;2023-04-28T02:18:58;4.47;;;4.03;;
5493;SDS011;2769;49.864;8.656;2023-04-28T02:21:26;6.23;;;4.23;;
5493;SDS011;2769;49.864;8.656;2023-04-28T02:23:54;5.80;;;5.03;;
5493;SDS011;2769;49.864;8.656;2023-04-28T02:26:22;5.90;;;4.77;;
5493;SDS011;2769;49.864;8.656;2023-04-28T02:28:51;5.87;;;4.40;;
5493;SDS011;2769;49.864;8.656;2023-04-28T02:31:19;5.10;;;4.63;;
5493;SDS011;2769;49.864;8.656;2023-04-28T02:33:48;5.73;;;5.10;;
5493;SDS011;2769;49.864;8.656;2023-04-28T02:36:17;5.97;;;4.80;;
5493;SDS011;2769;49.864;8.656;2023-04-28T02:38:45;4.60;;;4.20;;
5493;SDS011;2769;49.864;8.656;2023-04-28T02:41:13;6.50;;;4.90;;
5493;SDS011;2769;49.864;8.656;2023-04-28T02:43:42;4.83;;;4.43;;
5493;SDS011;2769;49.864;8.656;2023-04-28T02:46:10;6.03;;;5.40;;
5493;SDS011;2769;49.864;8.656;2023-04-28T02:48:38;5.77;;;5.13;;
5493;SDS011;2769;49.864;8.656;2023-04-28T02:51:08;5.57;;;4.60;;
5493;SDS011;2769;49.864;8.656;2023-04-28T02:53:36;7.83;;;5.23;;
5493;SDS011;2769;49.864;8.656;2023-04-28T02:56:04;5.03;;;4.13;;
5493;SDS011;2769;49.864;8.656;2023-04-28T02:58:32;4.60;;;4.20;;
5493;SDS011;2769;49.864;8.656;2023-04-28T03:01:00;3.93;;;3.63;;
5493;SDS011;2769;49.864;8.656;2023-04-28T03:03:28;4.37;;;4.00;;
5493;SDS011;2769;49.864;8.656;2023-04-28T03:05:56;4.30;;;3.80;;
5493;SDS011;2769;49.864;8.656;2023-04-28T03:08:26;4.93;;;3.90;;
5493;SDS011;2769;49.864;8.656;2023-04-28T03:10:54;7.07;;;3.87;;
5493;SDS011;2769;49.864;8.656;2023-04-28T03:13:22;3.70;;;3.40;;
5493;SDS011;2769;49.864;8.656;2023-04-28T03:15:50;4.97;;;3.60;;
5493;SDS011;2769;49.864;8.656;2023-04-28T03:18:19;3.97;;;3.20;;
5493;SDS011;2769;49.864;8.656;2023-04-28T03:20:48;5.90;;;4.23;;
5493;SDS011;2769;49.864;8.656;2023-04-28T03:23:16;4.10;;;3.70;;
5493;SDS011;2769;49.864;8.656;2023-04-28T03:25:45;7.07;;;4.10;;
5493;SDS011;2769;49.864;8.656;2023-04-28T03:28:13;3.50;;;3.30;;
5493;SDS011;2769;49.864;8.656;2023-04-28T03:30:41;5.53;;;3.43;;
5493;SDS011;2769;49.864;8.656;2023-04-28T03:33:09;4.10;;;3.70;;
5493;SDS011;2769;49.864;8.656;2023-04-28T03:35:37;5.63;;;3.90;;
5493;SDS011;2769;49.864;8.656;2023-04-28T03:38:06;3.40;;;3.20;;
5493;SDS011;2769;49.864;8.656;2023-04-28T03:40:34;3.53;;;3.27;;
5493;SDS011;2769;49.864;8.656;2023-04-28T03:43:10;3.83;;;3.40;;
5493;SDS011;2769;49.864;8.656;2023-04-28T03:45:51;4.73;;;4.00;;
5493;SDS011;2769;49.864;8.656;2023-04-28T03:48:18;5.70;;;3.80;;
5493;SDS011;2769;49.864;8.656;2023-04-28T03:50:47;4.00;;;3.50;;
5493;SDS011;2769;49.864;8.656;2023-04-28T03:53:14;5.00;;;3.70;;
5493;SDS011;2769;49.864;8.656;2023-04-28T03:55:43;4.77;;;4.00;;
5493;SDS011;2769;49.864;8.656;2023-04-28T03:58:12;8.50;;;4.10;;
5493;SDS011;2769;49.864;8.656;2023-04-28T04:00:40;5.47;;;4.27;;
5493;SDS011;2769;49.864;8.656;2023-04-28T04:03:08;4.20;;;3.80;;
5493;SDS011;2769;49.864;8.656;2023-04-28T04:05:38;3.80;;;3.50;;
5493;SDS011;2769;49.864;8.656;2023-04-28T04:08:06;4.03;;;3.80;;
5493;SDS011;2769;49.864;8.656;2023-04-28T04:10:34;4.43;;;3.93;;
5493;SDS011;2769;49.864;8.656;2023-04-28T04:13:02;4.67;;;4.27;;
5493;SDS011;2769;49.864;8.656;2023-04-28T04:15:31;4.40;;;4.00;;
5493;SDS011;2769;49.864;8.656;2023-04-28T04:17:59;6.00;;;4.33;;
5493;SDS011;2769;49.864;8.656;2023-04-28T04:20:37;6.00;;;4.30;;
5493;SDS011;2769;49.864;8.656;2023-04-28T04:23:06;5.60;;;4.60;;
5493;SDS011;2769;49.864;8.656;2023-04-28T04:25:34;5.43;;;4.40;;
5493;SDS011;2769;49.864;8.656;2023-04-28T04:28:02;4.43;;;4.03;;
5493;SDS011;2769;49.864;8.656;2023-04-28T04:30:32;7.07;;;4.00;;
5493;SDS011;2769;49.864;8.656;2023-04-28T04:33:00;4.20;;;3.90;;
5493;SDS011;2769;49.864;8.656;2023-04-28T04:35:28;6.27;;;4.20;;
5493;SDS011;2769;49.864;8.656;2023-04-28T04:37:56;5.00;;;4.50;;
5493;SDS011;2769;49.864;8.656;2023-04-28T04:40:24;7.57;;;4.30;;
5493;SDS011;2769;49.864;8.656;2023-04-28T04:42:53;5.40;;;4.67;;
5493;SDS011;2769;49.864;8.656;2023-04-28T04:45:25;5.20;;;4.70;;
5493;SDS011;2769;49.864;8.656;2023-04-28T04:47:55;5.20;;;4.70;;
5493;SDS011;2769;49.864;8.656;2023-04-28T04:50:23;5.67;;;5.07;;
5493;SDS011;2769;49.864;8.656;2023-04-28T04:52:52;6.20;;;5.20;;
5493;SDS011;2769;49.864;8.656;2023-04-28T04:55:22;5.73;;;5.10;;
5493;SDS011;2769;49.864;8.656;2023-04-28T04:57:51;10.37;;;5.30;;
5493;SDS011;2769;49.864;8.656;2023-04-28T05:00:27;6.27;;;5.77;;
5493;SDS011;2769;49.864;8.656;2023-04-28T05:02:57;7.30;;;5.47;;
5493;SDS011;2769;49.864;8.656;2023-04-28T05:05:26;8.37;;;6.33;;
5493;SDS011;2769;49.864;8.656;2023-04-28T05:08:19;9.53;;;6.80;;
5493;SDS011;2769;49.864;8.656;2023-04-28T05:10:47;7.80;;;6.00;;
5493;SDS011;2769;49.864;8.656;2023-04-28T05:13:15;12.77;;;7.00;;
5493;SDS011;2769;49.864;8.656;2023-04-28T05:15:43;8.10;;;6.30;;
5493;SDS011;2769;49.864;8.656;2023-04-28T05:18:35;8.30;;;6.37;;
5493;SDS011;2769;49.864;8.656;2023-04-28T05:21:03;7.33;;;6.10;;
5493;SDS011;2769;49.864;8.656;2023-04-28T05:23:33;7.33;;;6.33;;
5493;SDS011;2769;49.864;8.656;2023-04-28T05:26:01;8.80;;;6.17;;
5493;SDS011;2769;49.864;8.656;2023-04-28T05:28:30;8.60;;;6.30;;
5493;SDS011;2769;49.864;8.656;2023-04-28T05:31:00;11.13;;;7.40;;
5493;SDS011;2769;49.864;8.656;2023-04-28T05:33:29;10.30;;;6.67;;
5493;SDS011;2769;49.864;8.656;2023-04-28T05:35:59;9.97;;;7.13;;
5493;SDS011;2769;49.864;8.656;2023-04-28T05:38:28;7.70;;;6.00;;
5493;SDS011;2769;49.864;8.656;2023-04-28T05:40:57;10.50;;;6.63;;
5493;SDS011;2769;49.864;8.656;2023-04-28T05:43:27;6.87;;;6.30;;
5493;SDS011;2769;49.864;8.656;2023-04-28T05:45:55;8.63;;;6.53;;
5493;SDS011;2769;49.864;8.656;2023-04-28T05:48:23;8.00;;;7.20;;
5493;SDS011;2769;49.864;8.656;2023-04-28T05:50:51;9.00;;;7.00;;
5493;SDS011;2769;49.864;8.656;2023-04-28T05:53:21;10.40;;;7.70;;
5493;SDS011;2769;49.864;8.656;2023-04-28T05:55:50;8.80;;;6.83;;
5493;SDS011;2769;49.864;8.656;2023-04-28T05:58:18;10.90;;;8.13;;
5493;SDS011;2769;49.864;8.656;2023-04-28T06:00:47;9.97;;;8.00;;
5493;SDS011;2769;49.864;8.656;2023-04-28T06:03:16;12.10;;;8.50;;
5493;SDS011;2769;49.864;8.656;2023-04-28T06:05:45;11.17;;;8.37;;
5493;SDS011;2769;49.864;8.656;2023-04-28T06:08:14;11.90;;;8.80;;
5493;SDS011;2769;49.864;8.656;2023-04-28T06:10:43;14.97;;;9.10;;
5493;SDS011;2769;49.864;8.656;2023-04-28T06:13:11;21.77;;;10.20;;
5493;SDS011;2769;49.864;8.656;2023-04-28T06:15:40;13.87;;;10.40;;
5493;SDS011;2769;49.864;8.656;2023-04-28T06:18:08;13.87;;;10.13;;
5493;SDS011;2769;49.864;8.656;2023-04-28T06:20:36;15.43;;;11.07;;
5493;SDS011;2769;49.864;8.656;2023-04-28T06:23:04;15.33;;;11.10;;
5493;SDS011;2769;49.864;8.656;2023-04-28T06:25:32;19.10;;;11.40;;
5493;SDS011;2769;49.864;8.656;2023-04-28T06:28:03;19.47;;;12.10;;
5493;SDS011;2769;49.864;8.656;2023-04-28T06:30:31;17.47;;;12.10;;
5493;SDS011;2769;49.864;8.656;2023-04-28T06:33:02;20.87;;;12.10;;
5493;SDS011;2769;49.864;8.656;2023-04-28T06:35:30;13.80;;;11.90;;
5493;SDS011;2769;49.864;8.656;2023-04-28T06:38:01;21.53;;;13.50;;
5493;SDS011;2769;49.864;8.656;2023-04-28T06:40:29;20.67;;;13.10;;
5493;SDS011;2769;49.864;8.656;2023-04-28T06:42:59;19.33;;;12.63;;
5493;SDS011;2769;49.864;8.656;2023-04-28T06:45:35;17.20;;;13.40;;
5493;SDS011;2769;49.864;8.656;2023-04-28T06:48:04;19.50;;;13.10;;
5493;SDS011;2769;49.864;8.656;2023-04-28T06:50:36;19.60;;;13.70;;
5493;SDS011;2769;49.864;8.656;2023-04-28T06:53:07;20.00;;;13.23;;
5493;SDS011;2769;49.864;8.656;2023-04-28T06:55:34;17.87;;;13.37;;
5493;SDS011;2769;49.864;8.656;2023-04-28T06:58:02;19.73;;;13.53;;
5493;SDS011;2769;49.864;8.656;2023-04-28T07:00:32;17.57;;;13.07;;
5493;SDS011;2769;49.864;8.656;2023-04-28T07:03:04;23.47;;;14.30;;
5493;SDS011;2769;49.864;8.656;2023-04-28T07:05:32;18.57;;;14.63;;
5493;SDS011;2769;49.864;8.656;2023-04-28T07:08:01;19.00;;;13.90;;
5493;SDS011;2769;49.864;8.656;2023-04-28T07:10:29;17.03;;;13.37;;
5493;SDS011;2769;49.864;8.656;2023-04-28T07:12:57;18.07;;;13.20;;
5493;SDS011;2769;49.864;8.656;2023-04-28T07:15:25;19.50;;;12.53;;
5493;SDS011;2769;49.864;8.656;2023-04-28T07:17:53;17.37;;;11.73;;
5493;SDS011;2769;49.864;8.656;2023-04-28T07:20:23;15.60;;;11.73;;
5493;SDS011;2769;49.864;8.656;2023-04-28T07:22:51;17.80;;;12.17;;
5493;SDS011;2769;49.864;8.656;2023-04-28T07:25:19;17.67;;;12.53;;
5493;SDS011;2769;49.864;8.656;2023-04-28T07:27:47;16.03;;;12.97;;
5493;SDS011;2769;49.864;8.656;2023-04-28T07:30:15;19.03;;;12.27;;
5493;SDS011;2769;49.864;8.656;2023-04-28T07:32:53;15.00;;;12.53;;
5493;SDS011;2769;49.864;8.656;2023-04-28T07:35:23;18.03;;;13.00;;
5493;SDS011;2769;49.864;8.656;2023-04-28T07:37:53;16.97;;;12.17;;
5493;SDS011;2769;49.864;8.656;2023-04-28T07:40:23;16.47;;;11.33;;
5493;SDS011;2769;49.864;8.656;2023-04-28T07:42:51;15.70;;;12.20;;
5493;SDS011;2769;49.864;8.656;2023-04-28T07:45:19;14.23;;;11.20;;
5493;SDS011;2769;49.864;8.656;2023-04-28T07:47:47;12.77;;;11.47;;
5493;SDS011;2769;49.864;8.656;2023-04-28T07:50:18;17.87;;;12.17;;
5493;SDS011;2769;49.864;8.656;2023-04-28T07:52:48;18.20;;;13.30;;
5493;SDS011;2769;49.864;8.656;2023-04-28T07:55:16;21.00;;;12.47;;
5493;SDS011;2769;49.864;8.656;2023-04-28T07:57:45;15.70;;;11.27;;
5493;SDS011;2769;49.864;8.656;2023-04-28T08:00:13;14.63;;;12.10;;
5493;SDS011;2769;49.864;8.656;2023-04-28T08:02:42;13.27;;;11.13;;
5493;SDS011;2769;49.864;8.656;2023-04-28T08:05:10;15.73;;;11.70;;
5493;SDS011;2769;49.864;8.656;2023-04-28T08:07:38;16.70;;;12.00;;
5493;SDS011;2769;49.864;8.656;2023-04-28T08:10:08;18.93;;;11.80;;
5493;SDS011;2769;49.864;8.656;2023-04-28T08:12:37;12.70;;;11.30;;
5493;SDS011;2769;49.864;8.656;2023-04-28T08:15:08;15.63;;;12.37;;
5493;SDS011;2769;49.864;8.656;2023-04-28T08:17:37;17.10;;;12.30;;
5493;SDS011;2769;49.864;8.656;2023-04-28T08:20:05;12.77;;;11.37;;
5493;SDS011;2769;49.864;8.656;2023-04-28T08:22:34;18.97;;;12.30;;
5493;SDS011;2769;49.864;8.656;2023-04-28T08:25:02;12.30;;;10.60;;
5493;SDS011;2769;49.864;8.656;2023-04-28T08:27:32;12.93;;;11.00;;
5493;SDS011;2769;49.864;8.656;2023-04-28T08:30:03;14.10;;;10.77;;
5493;SDS011;2769;49.864;8.656;2023-04-28T08:32:32;14.37;;;12.23;;
5493;SDS011;2769;49.864;8.656;2023-04-28T08:35:00;15.40;;;12.63;;
5493;SDS011;2769;49.864;8.656;2023-04-28T08:37:28;12.77;;;11.47;;
5493;SDS011;2769;49.864;8.656;2023-04-28T08:39:56;13.70;;;10.73;;
5493;SDS011;2769;49.864;8.656;2023-04-28T08:42:27;18.13;;;12.17;;
5493;SDS011;2769;49.864;8.656;2023-04-28T08:44:57;14.67;;;12.77;;
5493;SDS011;2769;49.864;8.656;2023-04-28T08:47:27;17.03;;;13.70;;
5493;SDS011;2769;49.864;8.656;2023-04-28T08:50:04;14.57;;;12.67;;
5493;SDS011;2769;49.864;8.656;2023-04-28T08:52:33;15.93;;;14.13;;
5493;SDS011;2769;49.864;8.656;2023-04-28T08:55:04;16.10;;;13.87;;
5493;SDS011;2769;49.864;8.656;2023-04-28T08:57:34;16.07;;;13.07;;
5493;SDS011;2769;49.864;8.656;2023-04-28T09:00:08;15.97;;;14.03;;
5493;SDS011;2769;49.864;8.656;2023-04-28T09:02:37;17.30;;;13.67;;
5493;SDS011;2769;49.864;8.656;2023-04-28T09:05:08;17.47;;;14.33;;
5493;SDS011;2769;49.864;8.656;2023-04-28T09:07:37;15.70;;;14.03;;
5493;SDS011;2769;49.864;8.656;2023-04-28T09:10:15;18.90;;;15.10;;
5493;SDS011;2769;49.864;8.656;2023-04-28T09:12:44;18.03;;;14.70;;
5493;SDS011;2769;49.864;8.656;2023-04-28T09:15:25;18.57;;;15.37;;
5493;SDS011;2769;49.864;8.656;2023-04-28T09:17:56;17.20;;;15.17;;
5493;SDS011;2769;49.864;8.656;2023-04-28T09:20:24;19.87;;;15.70;;
5493;SDS011;2769;49.864;8.656;2023-04-28T09:22:53;19.73;;;15.60;;
5493;SDS011;2769;49.864;8.656;2023-04-28T09:25:22;17.17;;;14.60;;
5493;SDS011;2769;49.864;8.656;2023-04-28T09:27:52;19.73;;;16.30;;
5493;SDS011;2769;49.864;8.656;2023-04-28T09:30:33;20.13;;;15.70;;
5493;SDS011;2769;49.864;8.656;2023-04-28T09:33:05;19.50;;;16.90;;
5493;SDS011;2769;49.864;8.656;2023-04-28T09:35:40;19.87;;;16.10;;
5493;SDS011;2769;49.864;8.656;2023-04-28T09:38:08;23.63;;;18.27;;
5493;SDS011;2769;49.864;8.656;2023-04-28T09:40:47;22.60;;;17.47;;
5493;SDS011;2769;49.864;8.656;2023-04-28T09:43:23;22.23;;;17.80;;
5493;SDS011;2769;49.864;8.656;2023-04-28T09:45:55;22.80;;;17.53;;
5493;SDS011;2769;49.864;8.656;2023-04-28T09:48:27;22.07;;;18.43;;
5493;SDS011;2769;49.864;8.656;2023-04-28T09:50:56;22.43;;;18.57;;
5493;SDS011;2769;49.864;8.656;2023-04-28T09:53:24;23.07;;;18.23;;
5493;SDS011;2769;49.864;8.656;2023-04-28T09:55:53;25.73;;;20.13;;
5493;SDS011;2769;49.864;8.656;2023-04-28T09:58:23;24.93;;;19.03;;
5493;SDS011;2769;49.864;8.656;2023-04-28T10:00:53;26.97;;;20.93;;
5493;SDS011;2769;49.864;8.656;2023-04-28T10:03:24;25.40;;;20.10;;
5493;SDS011;2769;49.864;8.656;2023-04-28T10:05:55;27.57;;;21.43;;
5493;SDS011;2769;49.864;8.656;2023-04-28T10:08:24;25.13;;;20.00;;
5493;SDS011;2769;49.864;8.656;2023-04-28T10:10:53;27.23;;;19.10;;
5493;SDS011;2769;49.864;8.656;2023-04-28T10:13:23;23.67;;;20.30;;
5493;SDS011;2769;49.864;8.656;2023-04-28T10:15:51;22.90;;;19.47;;
5493;SDS011;2769;49.864;8.656;2023-04-28T10:18:22;24.53;;;20.63;;
5493;SDS011;2769;49.864;8.656;2023-04-28T10:20:52;26.07;;;20.27;;
5493;SDS011;2769;49.864;8.656;2023-04-28T10:23:33;23.00;;;19.70;;
5493;SDS011;2769;49.864;8.656;2023-04-28T10:26:09;23.83;;;19.70;;
5493;SDS011;2769;49.864;8.656;2023-04-28T10:28:43;24.40;;;19.07;;
5493;SDS011;2769;49.864;8.656;2023-04-28T10:31:13;22.53;;;19.13;;
5493;SDS011;2769;49.864;8.656;2023-04-28T10:33:43;22.10;;;19.23;;
5493;SDS011;2769;49.864;8.656;2023-04-28T10:36:46;21.10;;;18.83;;
5493;SDS011;2769;49.864;8.656;2023-04-28T10:39:16;23.80;;;20.60;;
5493;SDS011;2769;49.864;8.656;2023-04-28T10:41:44;25.20;;;21.10;;
5493;SDS011;2769;49.864;8.656;2023-04-28T10:44:39;22.73;;;19.63;;
5493;SDS011;2769;49.864;8.656;2023-04-28T10:47:08;20.43;;;17.80;;
5493;SDS011;2769;49.864;8.656;2023-04-28T10:52:47;20.00;;;15.27;;
5493;SDS011;2769;49.864;8.656;2023-04-28T10:55:25;18.90;;;15.77;;
5493;SDS011;2769;49.864;8.656;2023-04-28T11:03:52;18.30;;;16.30;;
5493;SDS011;2769;49.864;8.656;2023-04-28T11:06:28;17.80;;;15.37;;
5493;SDS011;2769;49.864;8.656;2023-04-28T11:08:58;18.47;;;15.57;;
5493;SDS011;2769;49.864;8.656;2023-04-28T11:11:28;18.80;;;15.90;;
5493;SDS011;2769;49.864;8.656;2023-04-28T11:17:00;17.53;;;14.63;;
5493;SDS011;2769;49.864;8.656;2023-04-28T11:19:29;17.20;;;15.40;;
5493;SDS011;2769;49.864;8.656;2023-04-28T11:22:00;17.67;;;15.30;;
5493;SDS011;2769;49.864;8.656;2023-04-28T11:24:29;16.33;;;14.70;;
5493;SDS011;2769;49.864;8.656;2023-04-28T11:26:57;18.07;;;16.20;;
5493;SDS011;2769;49.864;8.656;2023-04-28T11:29:32;16.93;;;15.23;;
5493;SDS011;2769;49.864;8.656;2023-04-28T11:32:01;17.57;;;15.77;;
5493;SDS011;2769;49.864;8.656;2023-04-28T11:34:30;17.40;;;15.13;;
5493;SDS011;2769;49.864;8.656;2023-04-28T11:36:59;21.90;;;16.20;;
5493;SDS011;2769;49.864;8.656;2023-04-28T11:39:28;19.93;;;16.33;;
5493;SDS011;2769;49.864;8.656;2023-04-28T11:41:57;21.03;;;17.80;;
5493;SDS011;2769;49.864;8.656;2023-04-28T11:44:26;18.53;;;16.53;;
5493;SDS011;2769;49.864;8.656;2023-04-28T11:46:55;22.10;;;16.73;;
5493;SDS011;2769;49.864;8.656;2023-04-28T11:49:27;20.20;;;16.87;;
5493;SDS011;2769;49.864;8.656;2023-04-28T11:51:55;21.10;;;17.13;;
5493;SDS011;2769;49.864;8.656;2023-04-28T11:54:27;20.13;;;18.00;;
5493;SDS011;2769;49.864;8.656;2023-04-28T11:56:55;19.13;;;16.40;;
5493;SDS011;2769;49.864;8.656;2023-04-28T11:59:24;18.03;;;16.13;;
5493;SDS011;2769;49.864;8.656;2023-04-28T12:01:54;19.00;;;16.10;;
5493;SDS011;2769;49.864;8.656;2023-04-28T12:04:25;17.43;;;15.73;;
5493;SDS011;2769;49.864;8.656;2023-04-28T12:06:57;18.47;;;16.27;;
5493;SDS011;2769;49.864;8.656;2023-04-28T12:09:28;19.07;;;17.03;;
5493;SDS011;2769;49.864;8.656;2023-04-28T12:11:56;18.30;;;15.50;;
5493;SDS011;2769;49.864;8.656;2023-04-28T12:14:25;17.30;;;15.50;;
5493;SDS011;2769;49.864;8.656;2023-04-28T12:16:53;16.87;;;15.23;;
5493;SDS011;2769;49.864;8.656;2023-04-28T12:19:22;18.40;;;15.33;;
5493;SDS011;2769;49.864;8.656;2023-04-28T12:21:59;16.87;;;15.07;;
5493;SDS011;2769;49.864;8.656;2023-04-28T12:24:30;16.77;;;15.17;;
5493;SDS011;2769;49.864;8.656;2023-04-28T12:27:14;18.60;;;13.73;;
5493;SDS011;2769;49.864;8.656;2023-04-28T12:29:43;14.27;;;12.97;;
5493;SDS011;2769;49.864;8.656;2023-04-28T12:32:13;14.70;;;13.27;;
5493;SDS011;2769;49.864;8.656;2023-04-28T12:34:43;14.63;;;13.23;;
5493;SDS011;2769;49.864;8.656;2023-04-28T12:37:12;13.83;;;12.53;;
5493;SDS011;2769;49.864;8.656;2023-04-28T12:39:42;12.60;;;11.33;;
5493;SDS011;2769;49.864;8.656;2023-04-28T12:42:13;11.97;;;10.80;;
5493;SDS011;2769;49.864;8.656;2023-04-28T12:44:40;10.63;;;9.73;;
5493;SDS011;2769;49.864;8.656;2023-04-28T12:47:08;12.67;;;9.33;;
5493;SDS011;2769;49.864;8.656;2023-04-28T12:49:37;8.43;;;7.73;;
5493;SDS011;2769;49.864;8.656;2023-04-28T12:52:05;8.07;;;7.47;;
5493;SDS011;2769;49.864;8.656;2023-04-28T12:54:33;11.03;;;7.07;;
5493;SDS011;2769;49.864;8.656;2023-04-28T12:57:03;7.60;;;7.00;;
5493;SDS011;2769;49.864;8.656;2023-04-28T12:59:31;6.10;;;5.70;;
5493;SDS011;2769;49.864;8.656;2023-04-28T13:01:59;6.67;;;6.17;;
5493;SDS011;2769;49.864;8.656;2023-04-28T13:04:28;5.87;;;5.53;;
5493;SDS011;2769;49.864;8.656;2023-04-28T13:06:57;7.13;;;6.23;;
5493;SDS011;2769;49.864;8.656;2023-04-28T13:09:25;6.67;;;6.13;;
5493;SDS011;2769;49.864;8.656;2023-04-28T13:11:53;6.10;;;5.70;;
5493;SDS011;2769;49.864;8.656;2023-04-28T13:14:23;6.80;;;5.80;;
5493;SDS011;2769;49.864;8.656;2023-04-28T13:16:53;5.90;;;5.40;;
5493;SDS011;2769;49.864;8.656;2023-04-28T13:19:21;5.70;;;5.30;;
5493;SDS011;2769;49.864;8.656;2023-04-28T13:21:49;5.70;;;4.73;;
5493;SDS011;2769;49.864;8.656;2023-04-28T13:24:17;5.07;;;4.70;;
5493;SDS011;2769;49.864;8.656;2023-04-28T13:26:45;4.50;;;4.10;;
5493;SDS011;2769;49.864;8.656;2023-04-28T13:29:13;4.37;;;4.07;;
5493;SDS011;2769;49.864;8.656;2023-04-28T13:31:42;3.80;;;3.60;;
5493;SDS011;2769;49.864;8.656;2023-04-28T13:34:10;3.67;;;3.47;;
5493;SDS011;2769;49.864;8.656;2023-04-28T13:36:41;3.10;;;3.00;;
5493;SDS011;2769;49.864;8.656;2023-04-28T13:39:09;2.97;;;2.87;;
5493;SDS011;2769;49.864;8.656;2023-04-28T13:41:40;3.00;;;2.90;;
5493;SDS011;2769;49.864;8.656;2023-04-28T13:44:08;3.70;;;3.50;;
5493;SDS011;2769;49.864;8.656;2023-04-28T13:46:36;3.27;;;2.97;;
5493;SDS011;2769;49.864;8.656;2023-04-28T13:49:05;5.40;;;4.23;;
5493;SDS011;2769;49.864;8.656;2023-04-28T13:51:33;5.00;;;4.67;;
5493;SDS011;2769;49.864;8.656;2023-04-28T13:54:01;4.40;;;4.20;;
5493;SDS011;2769;49.864;8.656;2023-04-28T13:56:30;5.17;;;4.67;;
5493;SDS011;2769;49.864;8.656;2023-04-28T13:58:58;3.67;;;3.47;;
5493;SDS011;2769;49.864;8.656;2023-04-28T14:01:26;4.73;;;4.00;;
5493;SDS011;2769;49.864;8.656;2023-04-28T14:03:54;4.63;;;4.23;;
5493;SDS011;2769;49.864;8.656;2023-04-28T14:06:24;7.17;;;4.60;;
5493;SDS011;2769;49.864;8.656;2023-04-28T14:08:51;4.10;;;3.80;;
5493;SDS011;2769;49.864;8.656;2023-04-28T14:11:19;3.47;;;3.27;;
5493;SDS011;2769;49.864;8.656;2023-04-28T14:13:48;3.20;;;3.00;;
5493;SDS011;2769;49.864;8.656;2023-04-28T14:16:15;2.80;;;2.57;;
5493;SDS011;2769;49.864;8.656;2023-04-28T14:18:44;2.67;;;2.53;;
5493;SDS011;2769;49.864;8.656;2023-04-28T14:21:11;3.50;;;3.20;;
5493;SDS011;2769;49.864;8.656;2023-04-28T14:23:41;2.20;;;2.10;;
5493;SDS011;2769;49.864;8.656;2023-04-28T14:26:08;2.37;;;2.27;;
5493;SDS011;2769;49.864;8.656;2023-04-28T14:28:37;2.10;;;2.00;;
5493;SDS011;2769;49.864;8.656;2023-04-28T14:31:04;3.77;;;1.37;;
5493;SDS011;2769;49.864;8.656;2023-04-28T14:33:34;1.57;;;1.50;;
5493;SDS011;2769;49.864;8.656;2023-04-28T14:36:02;1.60;;;1.50;;
5493;SDS011;2769;49.864;8.656;2023-04-28T14:38:30;1.60;;;1.50;;
5493;SDS011;2769;49.864;8.656;2023-04-28T14:41:00;3.90;;;1.30;;
5493;SDS011;2769;49.864;8.656;2023-04-28T14:43:28;2.20;;;1.57;;
5493;SDS011;2769;49.864;8.656;2023-04-28T14:45:56;4.00;;;1.47;;
5493;SDS011;2769;49.864;8.656;2023-04-28T14:48:23;1.50;;;1.40;;
5493;SDS011;2769;49.864;8.656;2023-04-28T14:50:52;2.00;;;1.47;;
5493;SDS011;2769;49.864;8.656;2023-04-28T14:53:20;4.30;;;1.23;;
5493;SDS011;2769;49.864;8.656;2023-04-28T14:55:47;1.27;;;1.27;;
5493;SDS011;2769;49.864;8.656;2023-04-28T14:58:17;1.80;;;1.30;;
5493;SDS011;2769;49.864;8.656;2023-04-28T15:00:48;3.07;;;1.70;;
5493;SDS011;2769;49.864;8.656;2023-04-28T15:03:18;2.20;;;1.40;;
5493;SDS011;2769;49.864;8.656;2023-04-28T15:05:46;1.53;;;1.20;;
5493;SDS011;2769;49.864;8.656;2023-04-28T15:08:14;2.93;;;1.40;;
5493;SDS011;2769;49.864;8.656;2023-04-28T15:10:42;1.43;;;1.33;;
5493;SDS011;2769;49.864;8.656;2023-04-28T15:13:10;1.40;;;1.30;;
5493;SDS011;2769;49.864;8.656;2023-04-28T15:15:39;6.07;;;1.30;;
5493;SDS011;2769;49.864;8.656;2023-04-28T15:18:07;1.13;;;1.13;;
5493;SDS011;2769;49.864;8.656;2023-04-28T15:20:35;2.83;;;1.27;;
5493;SDS011;2769;49.864;8.656;2023-04-28T15:23:03;0.90;;;0.90;;
5493;SDS011;2769;49.864;8.656;2023-04-28T15:25:31;0.80;;;0.80;;
5493;SDS011;2769;49.864;8.656;2023-04-28T15:27:59;0.70;;;0.70;;
5493;SDS011;2769;49.864;8.656;2023-04-28T15:30:29;1.00;;;0.90;;